Amberg, Wisconsin
Current Conditions -  °F | °C
As of 2:54 PM on Friday 24 Oct 2014 (Local Time) from KIMT Reporting Station
Clear Clear  
Wind Chill: 60°   Ceiling: Unl
Heat Index: 60°   Visibility: 10mi
Dew Point: 48°   Wind: 7mph
Humidity: 64%   Direction: 170°S
Pressure: 29.87"   Gusts: NA
Location:  45.5°N, 87.99°W
Report Text: KIMT 241954Z AUTO 17006KT 10SM CLR 16/09 A2987 RMK AO2 SLP119 T01560089
Loading
Personal Weather Stations






























Interactive Weather Map New forecast layout! Learn more

10-Day Weather Forecast

Advertisements
Track Severe Weather on mobile